Time;durP1;ratioP1;P1;durP2;ratioP2;P2;SDS_P1;SDS_P2;PMS_P1;PMS_P2;Temp;Humidity;BMP_temperature;BMP_pressure;BME280_temperature;BME280_humidity;BME280_pressure;Samples;Min_cycle;Max_cycle;Signal;HPM_P1;HPM_P2
2023/06/20 00:00:17;;;;;;;18.77;10.73;;;;;;;19.45;100.00;100843.59;5053417;28;20546;-71
2023/06/20 00:02:44;;;;;;;17.50;10.30;;;;;;;19.44;100.00;100836.53;5053453;28;20446;-71
2023/06/20 00:05:10;;;;;;;18.93;10.70;;;;;;;19.42;100.00;100842.34;5053360;28;20505;-72
2023/06/20 00:07:37;;;;;;;20.00;10.27;;;;;;;19.39;100.00;100840.34;5053396;28;20446;-71
2023/06/20 00:10:08;;;;;;;16.93;10.90;;;;;;;19.38;100.00;100845.00;5053423;28;20477;-71
2023/06/20 00:12:35;;;;;;;20.17;11.47;;;;;;;19.35;100.00;100843.00;5053665;28;20450;-72
2023/06/20 00:15:02;;;;;;;20.17;11.83;;;;;;;19.40;100.00;100839.19;5053366;28;21014;-71
2023/06/20 00:17:28;;;;;;;17.10;9.50;;;;;;;19.36;100.00;100830.84;5053256;28;20443;-71
2023/06/20 00:19:55;;;;;;;22.13;10.77;;;;;;;19.37;100.00;100831.63;5053163;28;20457;-71
2023/06/20 00:22:22;;;;;;;19.47;10.50;;;;;;;19.38;100.00;100823.03;5053179;28;20451;-71
2023/06/20 00:24:49;;;;;;;23.30;11.77;;;;;;;19.38;100.00;100830.47;5052857;28;20474;-72
2023/06/20 00:27:17;;;;;;;19.00;10.13;;;;;;;19.39;100.00;100827.41;5053050;28;20447;-71
2023/06/20 00:29:43;;;;;;;22.97;11.83;;;;;;;19.38;100.00;100823.03;5052979;28;20542;-71
2023/06/20 00:32:10;;;;;;;21.27;11.40;;;;;;;19.35;100.00;100818.25;5053329;28;20447;-71
2023/06/20 00:34:37;;;;;;;23.80;10.83;;;;;;;19.37;100.00;100820.66;5052956;28;20451;-71
2023/06/20 00:37:04;;;;;;;17.80;11.10;;;;;;;19.31;100.00;100817.38;5052613;28;20504;-72
2023/06/20 00:39:30;;;;;;;20.43;10.50;;;;;;;19.33;100.00;100812.31;5053158;28;20496;-72
2023/06/20 00:41:57;;;;;;;18.30;10.30;;;;;;;19.33;100.00;100806.81;5052894;28;20463;-71
2023/06/20 00:44:26;;;;;;;18.07;10.90;;;;;;;19.37;100.00;100810.44;5052661;28;20482;-72
2023/06/20 00:46:52;;;;;;;19.83;10.37;;;;;;;19.34;100.00;100807.59;5052738;28;20466;-72
2023/06/20 00:49:19;;;;;;;18.03;10.73;;;;;;;19.31;100.00;100803.66;5052996;28;20513;-72
2023/06/20 00:51:46;;;;;;;20.60;12.10;;;;;;;19.31;100.00;100808.34;5052898;28;20552;-72
2023/06/20 00:54:12;;;;;;;18.33;11.17;;;;;;;19.28;100.00;100806.28;5052813;28;20933;-71
2023/06/20 00:56:39;;;;;;;16.30;10.33;;;;;;;19.21;97.93;100806.09;5052426;28;20485;-72
2023/06/20 00:59:06;;;;;;;18.93;10.50;;;;;;;19.20;97.57;100804.50;5052925;28;20550;-72
2023/06/20 01:01:34;;;;;;;18.67;9.20;;;;;;;19.16;98.24;100799.72;5052533;28;20528;-71
2023/06/20 01:04:01;;;;;;;18.70;10.20;;;;;;;19.18;99.18;100782.91;5052493;28;20514;-72
2023/06/20 01:06:36;;;;;;;18.87;11.37;;;;;;;19.24;100.00;100786.19;5052848;28;20529;-71
2023/06/20 01:09:10;;;;;;;18.20;9.93;;;;;;;19.19;100.00;100781.75;5052845;28;20509;-72
2023/06/20 01:11:46;;;;;;;20.37;11.60;;;;;;;19.18;100.00;100782.91;5052413;28;20477;-71
2023/06/20 01:14:21;;;;;;;17.23;10.93;;;;;;;19.20;100.00;100788.03;5052766;28;20851;-71
2023/06/20 01:16:57;;;;;;;21.17;11.93;;;;;;;19.19;100.00;100792.75;5052447;28;20536;-72
2023/06/20 01:19:43;;;;;;;22.53;12.13;;;;;;;19.14;100.00;100791.06;5052459;28;20456;-72
2023/06/20 01:22:17;;;;;;;21.00;11.57;;;;;;;19.16;100.00;100776.97;5052697;28;20442;-72
2023/06/20 01:24:54;;;;;;;15.87;9.83;;;;;;;19.13;100.00;100781.22;5052643;28;20465;-71
2023/06/20 01:27:28;;;;;;;21.83;12.50;;;;;;;19.15;100.00;100784.41;5052698;28;20426;-72
2023/06/20 01:30:02;;;;;;;19.20;11.60;;;;;;;19.09;100.00;100783.09;5052479;28;20430;-72
2023/06/20 01:32:31;;;;;;;19.43;11.27;;;;;;;19.09;100.00;100787.78;5052645;28;20540;-72
2023/06/20 01:35:03;;;;;;;14.93;9.80;;;;;;;19.11;100.00;100791.75;5052532;28;20528;-72
2023/06/20 01:37:34;;;;;;;18.37;10.80;;;;;;;19.11;100.00;100782.72;5052501;28;20427;-71
2023/06/20 01:40:05;;;;;;;17.50;9.97;;;;;;;19.09;100.00;100788.56;5052520;28;20509;-72
2023/06/20 01:42:34;;;;;;;19.70;11.80;;;;;;;19.10;100.00;100779.19;5052471;28;20437;-72
2023/06/20 01:45:03;;;;;;;21.10;10.97;;;;;;;19.12;100.00;100776.91;5052225;28;20524;-72
2023/06/20 01:47:33;;;;;;;16.33;10.20;;;;;;;19.10;100.00;100778.38;5053431;28;20446;-72
2023/06/20 01:50:01;;;;;;;19.37;11.63;;;;;;;19.09;100.00;100771.31;5055369;28;20456;-72
2023/06/20 01:52:29;;;;;;;19.03;11.23;;;;;;;19.06;100.00;100781.03;5056261;28;20478;-72
2023/06/20 01:54:57;;;;;;;17.17;10.00;;;;;;;19.07;100.00;100768.09;5055916;28;20814;-72
2023/06/20 01:57:26;;;;;;;27.77;10.83;;;;;;;19.08;100.00;100783.41;5055898;28;20446;-71
2023/06/20 01:59:54;;;;;;;17.80;10.00;;;;;;;19.03;100.00;100789.97;5055776;28;20454;-72
2023/06/20 02:02:22;;;;;;;20.10;11.27;;;;;;;19.05;100.00;100787.69;5055940;28;20537;-71
2023/06/20 02:04:50;;;;;;;21.03;12.30;;;;;;;19.06;100.00;100788.47;5055741;28;20482;-71
2023/06/20 02:07:17;;;;;;;21.33;12.27;;;;;;;19.03;100.00;100776.25;5055885;28;20529;-72
2023/06/20 02:09:45;;;;;;;21.60;11.20;;;;;;;19.03;100.00;100783.69;5055664;28;20438;-72
2023/06/20 02:12:15;;;;;;;17.07;9.93;;;;;;;19.05;100.00;100795.91;5055916;28;20457;-72
2023/06/20 02:14:45;;;;;;;20.03;11.00;;;;;;;19.04;100.00;100790.78;5055420;28;20466;-72
2023/06/20 02:17:13;;;;;;;18.60;10.87;;;;;;;19.03;100.00;100778.19;5055768;28;20438;-72
2023/06/20 02:19:40;;;;;;;18.73;11.93;;;;;;;19.06;100.00;100785.72;5055344;28;20454;-72
2023/06/20 02:22:08;;;;;;;20.23;11.20;;;;;;;19.07;100.00;100777.13;5055716;28;20539;-72
2023/06/20 02:24:37;;;;;;;17.27;9.93;;;;;;;19.07;100.00;100781.81;5055387;28;20492;-72
2023/06/20 02:27:07;;;;;;;20.93;11.30;;;;;;;19.04;100.00;100788.84;5055496;28;20912;-72
2023/06/20 02:29:38;;;;;;;20.37;10.57;;;;;;;19.00;100.00;100784.41;5055722;28;20482;-72
2023/06/20 02:32:10;;;;;;;20.40;10.40;;;;;;;19.00;100.00;100782.47;5055440;28;20498;-72
2023/06/20 02:34:41;;;;;;;15.57;9.67;;;;;;;18.99;100.00;100778.13;5055518;28;20422;-72
2023/06/20 02:37:09;;;;;;;18.37;11.17;;;;;;;18.98;100.00;100784.75;5054960;28;20971;-71
2023/06/20 02:39:36;;;;;;;18.70;11.20;;;;;;;18.98;100.00;100786.69;5055316;28;20513;-72
2023/06/20 02:42:03;;;;;;;18.07;10.87;;;;;;;18.99;100.00;100780.88;5055137;28;20997;-72
2023/06/20 02:44:29;;;;;;;17.13;10.20;;;;;;;19.00;100.00;100784.41;5055105;28;20438;-72
2023/06/20 02:47:03;;;;;;;18.13;11.40;;;;;;;18.99;100.00;100791.03;5055001;28;20482;-72
2023/06/20 02:49:40;;;;;;;19.80;11.23;;;;;;;19.00;100.00;100792.66;5055004;28;20422;-72
2023/06/20 02:52:17;;;;;;;22.50;10.80;;;;;;;19.01;100.00;100791.50;5055276;28;20461;-72
2023/06/20 02:54:49;;;;;;;22.00;12.13;;;;;;;19.05;100.00;100789.63;5055228;28;20596;-72
2023/06/20 02:57:21;;;;;;;22.00;11.40;;;;;;;19.06;100.00;100794.75;5054936;28;20928;-72
2023/06/20 02:59:56;;;;;;;18.70;10.77;;;;;;;19.08;100.00;100788.91;5054727;28;20431;-72
2023/06/20 03:02:24;;;;;;;16.20;10.30;;;;;;;19.07;100.00;100788.13;5054901;28;20521;-72
2023/06/20 03:04:56;;;;;;;17.23;10.03;;;;;;;19.03;100.00;100787.22;5054658;28;20522;-72
2023/06/20 03:07:25;;;;;;;23.10;11.53;;;;;;;19.08;100.00;100786.16;5054676;28;20430;-72
2023/06/20 03:16:35;;;;;;;22.20;12.50;;;;;;;19.11;100.00;100796.44;5054538;28;20755;-72
2023/06/20 03:19:03;;;;;;;21.20;11.83;;;;;;;19.12;100.00;100798.84;5054423;28;20442;-72
2023/06/20 03:21:30;;;;;;;23.07;12.90;;;;;;;19.12;100.00;100811.75;5054299;28;20553;-72
2023/06/20 03:23:57;;;;;;;24.07;12.47;;;;;;;19.09;100.00;100826.22;5054068;28;20481;-72
2023/06/20 03:26:24;;;;;;;22.00;12.23;;;;;;;19.15;100.00;100827.56;5054154;28;20490;-72
2023/06/20 03:28:50;;;;;;;21.60;12.00;;;;;;;19.16;100.00;100824.44;5053916;28;20541;-73
2023/06/20 03:31:17;;;;;;;19.37;10.70;;;;;;;19.16;100.00;100832.69;5054085;28;20502;-71
2023/06/20 03:33:43;;;;;;;21.13;12.50;;;;;;;19.19;100.00;100836.69;5054137;28;20552;-73
2023/06/20 03:36:10;;;;;;;21.37;12.23;;;;;;;19.19;100.00;100824.91;5054109;28;20446;-71
2023/06/20 03:38:42;;;;;;;24.70;13.37;;;;;;;19.16;100.00;100827.19;5054075;28;20793;-71
2023/06/20 03:41:08;;;;;;;24.20;14.10;;;;;;;19.19;99.21;100825.69;5054194;28;20477;-71
2023/06/20 03:43:35;;;;;;;21.50;12.70;;;;;;;19.18;99.77;100837.03;5053996;28;20477;-73
2023/06/20 03:46:01;;;;;;;23.10;12.00;;;;;;;19.20;99.21;100831.97;5053703;28;20536;-72
2023/06/20 03:48:28;;;;;;;22.37;13.50;;;;;;;19.24;98.85;100828.16;5053827;28;20446;-72
2023/06/20 03:50:55;;;;;;;21.47;12.07;;;;;;;19.27;98.32;100821.97;5053410;28;20490;-72
2023/06/20 03:53:21;;;;;;;23.60;11.77;;;;;;;19.28;98.02;100829.06;5053780;28;20537;-71
2023/06/20 03:55:49;;;;;;;20.90;13.40;;;;;;;19.35;97.36;100833.94;5053402;28;20469;-72
2023/06/20 03:58:16;;;;;;;19.00;10.33;;;;;;;19.41;97.18;100838.81;5053626;28;20526;-73
2023/06/20 04:00:42;;;;;;;22.43;12.17;;;;;;;19.46;96.25;100831.47;5053520;28;20485;-72
2023/06/20 04:03:09;;;;;;;20.40;11.63;;;;;;;19.50;96.85;100832.34;5053625;28;20438;-71
2023/06/20 04:05:36;;;;;;;21.97;12.10;;;;;;;19.55;96.95;100827.38;5053446;28;20482;-72
2023/06/20 04:08:02;;;;;;;18.40;11.63;;;;;;;19.60;96.39;100838.13;5053206;28;20474;-73
2023/06/20 04:10:29;;;;;;;20.40;11.70;;;;;;;19.64;94.73;100843.72;5053385;28;20557;-72
2023/06/20 04:12:57;;;;;;;19.27;11.70;;;;;;;19.70;96.06;100846.97;5052939;28;20624;-72
2023/06/20 04:15:23;;;;;;;20.50;11.93;;;;;;;19.75;96.31;100841.22;5053422;28;20615;-72
2023/06/20 04:17:50;;;;;;;20.23;12.37;;;;;;;19.82;96.68;100847.66;5053021;28;20940;-72
2023/06/20 04:20:17;;;;;;;22.40;13.60;;;;;;;19.85;96.59;100846.97;5053144;28;20977;-72
2023/06/20 04:22:45;;;;;;;18.50;10.53;;;;;;;19.90;96.69;100841.19;5053228;28;20478;-72
2023/06/20 04:25:12;;;;;;;18.27;10.60;;;;;;;19.98;96.69;100836.66;5052949;28;20489;-72
2023/06/20 04:27:39;;;;;;;19.10;12.00;;;;;;;20.03;97.04;100843.81;5053427;28;20478;-72
2023/06/20 04:30:08;;;;;;;19.37;10.50;;;;;;;20.11;97.40;100851.88;5053153;28;20545;-72
2023/06/20 04:32:36;;;;;;;18.93;11.80;;;;;;;20.20;96.93;100854.44;5053129;28;20481;-72
2023/06/20 04:35:03;;;;;;;19.53;11.20;;;;;;;20.27;96.30;100851.81;5053079;28;20484;-72
2023/06/20 04:37:29;;;;;;;16.67;10.17;;;;;;;20.38;95.03;100855.59;5053011;28;20472;-72
2023/06/20 04:39:57;;;;;;;17.47;11.10;;;;;;;20.49;95.10;100849.53;5052906;28;20541;-72
2023/06/20 04:42:23;;;;;;;16.90;9.90;;;;;;;20.53;93.64;100853.16;5052988;28;20445;-71
2023/06/20 04:44:50;;;;;;;19.43;12.13;;;;;;;20.58;91.56;100841.88;5052780;28;21027;-71
2023/06/20 04:47:18;;;;;;;21.27;11.40;;;;;;;20.64;90.90;100841.22;5052815;28;20980;-72
2023/06/20 04:49:44;;;;;;;22.30;10.27;;;;;;;20.71;90.93;100848.81;5052773;28;20448;-72
2023/06/20 04:52:11;;;;;;;18.17;11.13;;;;;;;20.79;90.84;100849.75;5052879;28;20955;-72
2023/06/20 04:54:37;;;;;;;16.90;10.13;;;;;;;20.84;90.89;100847.50;5052946;28;20442;-71
2023/06/20 04:57:05;;;;;;;23.23;11.23;;;;;;;20.89;91.00;100855.50;5052931;28;20442;-71
2023/06/20 04:59:32;;;;;;;17.90;10.27;;;;;;;20.91;91.30;100847.66;5052851;28;20438;-72
2023/06/20 05:01:58;;;;;;;16.97;9.57;;;;;;;20.94;90.21;100850.81;5052514;28;20489;-72
2023/06/20 05:04:26;;;;;;;16.77;8.53;;;;;;;21.02;90.64;100858.06;5052455;28;20937;-72
2023/06/20 05:06:53;;;;;;;18.43;9.10;;;;;;;21.06;89.92;100859.72;5052741;28;20489;-71
2023/06/20 05:09:19;;;;;;;19.13;10.57;;;;;;;21.11;90.51;100866.88;5052778;28;20452;-71
2023/06/20 05:11:46;;;;;;;26.63;10.60;;;;;;;21.14;89.71;100855.13;5052645;28;20466;-71
2023/06/20 05:14:13;;;;;;;14.67;9.10;;;;;;;21.17;90.16;100865.44;5052809;28;20521;-71
2023/06/20 05:16:39;;;;;;;19.63;10.30;;;;;;;21.19;88.58;100863.09;5052719;28;20466;-71
2023/06/20 05:19:06;;;;;;;16.53;10.07;;;;;;;21.16;84.89;100869.34;5052933;28;20453;-71
2023/06/20 05:21:35;;;;;;;18.57;10.77;;;;;;;21.15;83.31;100867.75;5052344;28;21056;-71
2023/06/20 05:24:01;;;;;;;17.70;9.50;;;;;;;21.17;82.49;100873.69;5053979;28;20453;-72
2023/06/20 05:26:28;;;;;;;17.60;10.70;;;;;;;21.16;82.83;100870.16;5056474;28;20568;-70
2023/06/20 05:28:54;;;;;;;14.63;8.73;;;;;;;21.19;84.43;100878.84;5056177;28;21006;-70
2023/06/20 05:31:24;;;;;;;20.53;10.57;;;;;;;21.23;87.13;100886.00;5056407;28;20553;-70
2023/06/20 05:33:51;;;;;;;18.10;9.93;;;;;;;21.22;89.06;100867.88;5056055;28;20931;-70
2023/06/20 05:36:18;;;;;;;17.07;9.73;;;;;;;21.23;89.95;100874.97;5056568;28;20472;-70
2023/06/20 05:38:48;;;;;;;17.00;9.60;;;;;;;21.25;89.57;100875.44;5056308;28;20465;-70
2023/06/20 05:41:14;;;;;;;18.10;10.40;;;;;;;21.27;89.80;100870.34;5056475;28;20558;-70
2023/06/20 05:43:41;;;;;;;17.00;10.10;;;;;;;21.33;90.19;100873.59;5055896;28;20860;-70
2023/06/20 05:46:08;;;;;;;17.43;9.40;;;;;;;21.36;89.88;100879.19;5055654;28;20843;-70
2023/06/20 05:48:35;;;;;;;16.63;10.70;;;;;;;21.46;89.40;100882.50;5055885;28;20479;-69
2023/06/20 05:51:03;;;;;;;23.17;11.03;;;;;;;21.54;88.91;100879.50;5055716;28;20552;-70
2023/06/20 05:53:29;;;;;;;18.57;10.87;;;;;;;21.64;88.40;100875.31;5056267;28;20454;-70
2023/06/20 05:55:57;;;;;;;17.83;9.50;;;;;;;21.78;88.62;100881.06;5055741;28;20541;-70
2023/06/20 05:58:24;;;;;;;19.17;11.63;;;;;;;21.90;87.40;100880.06;5055975;28;20484;-70
2023/06/20 06:00:51;;;;;;;14.67;9.50;;;;;;;22.05;86.75;100886.59;5055520;28;20549;-71
2023/06/20 06:03:18;;;;;;;18.13;10.20;;;;;;;22.12;86.29;100882.00;5055528;28;20524;-70
2023/06/20 06:05:45;;;;;;;19.60;10.50;;;;;;;22.18;84.23;100888.00;5055501;28;20477;-72
2023/06/20 06:08:12;;;;;;;17.10;9.93;;;;;;;22.20;83.14;100885.66;5055416;28;20876;-72
2023/06/20 06:10:39;;;;;;;19.13;10.83;;;;;;;22.27;83.97;100888.53;5055392;28;20969;-71
2023/06/20 06:13:07;;;;;;;19.40;11.00;;;;;;;22.32;83.82;100890.97;5055717;28;20525;-69
2023/06/20 06:15:34;;;;;;;16.47;9.10;;;;;;;22.39;83.89;100890.25;5055430;28;20836;-69
2023/06/20 06:18:03;;;;;;;17.53;10.03;;;;;;;22.42;84.13;100893.06;5055558;28;20438;-71
2023/06/20 06:20:30;;;;;;;17.83;11.17;;;;;;;22.51;83.87;100883.72;5055390;28;20470;-71
2023/06/20 06:22:57;;;;;;;18.80;10.20;;;;;;;22.57;82.49;100887.72;5055488;28;20438;-71
2023/06/20 06:25:23;;;;;;;19.97;10.47;;;;;;;22.64;81.64;100879.53;5055127;28;20448;-71
2023/06/20 06:27:50;;;;;;;19.97;10.37;;;;;;;22.75;81.65;100880.44;5055431;28;20488;-72
2023/06/20 06:30:18;;;;;;;15.70;9.90;;;;;;;22.86;82.00;100880.59;5055023;28;21150;-72
2023/06/20 06:32:47;;;;;;;16.73;10.23;;;;;;;22.94;81.34;100875.97;5055792;28;20474;-71
2023/06/20 06:35:16;;;;;;;17.80;9.47;;;;;;;22.97;79.27;100875.97;5055454;28;20457;-71
2023/06/20 06:37:43;;;;;;;19.40;10.43;;;;;;;23.02;79.02;100877.59;5055229;28;20465;-71
2023/06/20 06:40:11;;;;;;;17.37;10.90;;;;;;;23.09;78.58;100883.22;5054857;28;20985;-71
2023/06/20 06:42:39;;;;;;;18.60;10.80;;;;;;;23.10;79.33;100880.06;5055037;28;20449;-71
2023/06/20 06:45:07;;;;;;;14.57;9.60;;;;;;;23.14;79.84;100886.44;5055060;28;20526;-71
2023/06/20 06:47:35;;;;;;;14.23;8.37;;;;;;;23.20;80.45;100880.56;5054655;28;20478;-71
2023/06/20 06:50:02;;;;;;;17.47;10.00;;;;;;;23.28;81.35;100879.47;5054877;28;20795;-70
2023/06/20 06:52:31;;;;;;;15.03;8.57;;;;;;;23.39;81.08;100881.16;5054872;28;20446;-72
2023/06/20 06:54:57;;;;;;;16.50;9.50;;;;;;;23.52;79.70;100880.88;5054913;28;20478;-72
2023/06/20 06:57:24;;;;;;;22.60;11.17;;;;;;;23.63;78.69;100882.53;5054836;28;20525;-72
2023/06/20 06:59:50;;;;;;;17.33;10.23;;;;;;;23.71;78.56;100883.41;5054783;28;20438;-71
2023/06/20 07:02:17;;;;;;;18.43;11.07;;;;;;;23.82;78.87;100886.28;5054761;28;20482;-71
2023/06/20 07:04:45;;;;;;;19.80;10.40;;;;;;;23.95;77.76;100886.75;5054843;28;20866;-71
2023/06/20 07:07:12;;;;;;;17.00;10.60;;;;;;;24.05;76.09;100884.06;5054630;28;20482;-71
2023/06/20 07:09:39;;;;;;;17.20;9.97;;;;;;;24.11;75.79;100884.50;5054664;28;20446;-71
2023/06/20 07:12:06;;;;;;;15.40;9.27;;;;;;;24.14;75.32;100887.28;5054431;28;20550;-71
2023/06/20 07:14:33;;;;;;;18.57;10.50;;;;;;;24.17;75.15;100881.00;5054139;28;20533;-71
2023/06/20 07:17:00;;;;;;;19.37;9.80;;;;;;;24.31;75.70;100885.03;5054265;28;20450;-72
2023/06/20 07:19:27;;;;;;;16.87;9.37;;;;;;;24.45;75.10;100878.78;5054134;28;20488;-71
2023/06/20 07:21:55;;;;;;;18.10;9.90;;;;;;;24.58;73.96;100883.59;5054398;28;20466;-71
2023/06/20 07:24:21;;;;;;;14.73;9.57;;;;;;;24.79;73.63;100870.97;5054409;28;20453;-71
2023/06/20 07:26:48;;;;;;;19.17;9.83;;;;;;;24.94;73.28;100875.41;5054241;28;20528;-71
2023/06/20 07:29:14;;;;;;;16.13;10.10;;;;;;;25.04;72.73;100882.16;5054310;28;20448;-71
2023/06/20 07:31:41;;;;;;;14.80;9.20;;;;;;;25.17;72.35;100875.06;5054172;28;20464;-71
2023/06/20 07:34:08;;;;;;;16.53;9.67;;;;;;;25.29;72.29;100877.47;5054230;28;20438;-71
2023/06/20 07:36:34;;;;;;;17.20;9.17;;;;;;;25.38;72.61;100880.66;5054094;28;20885;-71
2023/06/20 07:39:02;;;;;;;18.37;11.43;;;;;;;25.48;73.35;100894.91;5053710;28;20834;-71
2023/06/20 07:41:29;;;;;;;15.87;10.20;;;;;;;25.46;70.37;100905.63;5053999;28;20557;-72
2023/06/20 07:43:55;;;;;;;17.40;10.60;;;;;;;25.45;72.16;100904.03;5053684;28;20442;-71
2023/06/20 07:46:24;;;;;;;19.67;10.57;;;;;;;25.43;71.36;100904.44;5052824;28;20490;-69
2023/06/20 07:48:51;;;;;;;16.90;9.60;;;;;;;25.42;70.57;100906.41;5077586;22;20496;-83
2023/06/20 07:51:18;;;;;;;16.50;11.03;;;;;;;25.49;72.37;100907.59;5079340;28;20881;-81
2023/06/20 07:53:45;;;;;;;19.83;10.20;;;;;;;25.46;69.19;100906.41;5076197;28;20449;-82
2023/06/20 07:56:13;;;;;;;18.30;10.97;;;;;;;25.54;71.48;100905.22;5075236;28;20434;-81
2023/06/20 07:58:41;;;;;;;16.93;10.10;;;;;;;25.53;69.54;100895.31;5098904;22;20924;-67
2023/06/20 08:01:08;;;;;;;16.73;10.07;;;;;;;25.63;70.66;100890.94;5073594;28;20453;-66
2023/06/20 08:03:34;;;;;;;17.50;9.83;;;;;;;25.71;71.82;100892.53;5073563;28;20485;-67
2023/06/20 08:06:01;;;;;;;15.23;9.90;;;;;;;25.75;71.92;100895.31;5073177;28;20443;-66
2023/06/20 08:08:28;;;;;;;17.47;10.27;;;;;;;25.77;70.33;100896.53;5073360;28;21113;-66
2023/06/20 08:10:54;;;;;;;18.97;10.10;;;;;;;25.79;70.15;100905.25;5073465;28;20532;-65
2023/06/20 08:13:24;;;;;;;15.33;8.43;;;;;;;25.81;71.85;100900.13;5073378;28;20498;-66
2023/06/20 08:15:51;;;;;;;16.17;9.90;;;;;;;25.85;74.02;100900.09;5073100;28;20977;-65
2023/06/20 08:18:17;;;;;;;18.40;11.80;;;;;;;25.87;73.69;100897.72;5073510;28;20457;-66
2023/06/20 08:20:45;;;;;;;15.80;10.37;;;;;;;25.87;73.05;100904.06;5072934;28;20950;-67
2023/06/20 08:23:12;;;;;;;17.53;9.57;;;;;;;25.85;71.43;100889.81;5073001;28;20949;-66
2023/06/20 08:25:38;;;;;;;17.50;10.37;;;;;;;25.83;70.82;100906.03;5073151;28;20834;-65
2023/06/20 08:28:05;;;;;;;24.87;10.87;;;;;;;25.79;72.51;100899.69;5073102;28;20499;-64
2023/06/20 08:30:33;;;;;;;16.50;10.53;;;;;;;25.73;71.91;100908.81;5073049;28;20457;-64
2023/06/20 08:32:59;;;;;;;18.30;10.20;;;;;;;25.65;72.59;100903.25;5072786;28;20948;-65
2023/06/20 08:35:26;;;;;;;20.43;11.40;;;;;;;25.55;72.12;100906.03;5073170;28;20437;-64
2023/06/20 08:37:52;;;;;;;21.33;12.13;;;;;;;25.46;73.33;100908.41;5073046;28;20459;-65
2023/06/20 08:40:19;;;;;;;22.20;10.00;;;;;;;25.36;72.74;100905.19;5072760;28;20976;-65
2023/06/20 08:42:46;;;;;;;21.17;10.80;;;;;;;25.31;73.27;100902.81;5073137;28;20571;-65
2023/06/20 08:45:15;;;;;;;19.17;11.63;;;;;;;25.27;73.30;100918.66;5073116;28;20465;-64
2023/06/20 08:47:43;;;;;;;20.60;10.90;;;;;;;25.16;68.95;100954.69;5073112;28;20489;-65
2023/06/20 08:50:10;;;;;;;25.00;12.17;;;;;;;25.03;70.92;100972.03;5072988;28;20445;-64
2023/06/20 08:52:45;;;;;;;17.23;9.93;;;;;;;24.87;71.07;100962.06;5072685;28;20955;-64
2023/06/20 08:55:14;;;;;;;16.00;10.00;;;;;;;24.84;71.06;100962.88;5073006;28;20799;-64
2023/06/20 08:57:41;;;;;;;23.60;10.87;;;;;;;24.87;70.67;100977.91;5073919;28;20540;-65
2023/06/20 09:00:11;;;;;;;18.90;10.07;;;;;;;24.69;72.51;100977.81;5077139;28;20480;-65
2023/06/20 09:02:37;;;;;;;16.90;10.50;;;;;;;24.68;71.70;100987.31;5077343;28;20480;-65
2023/06/20 09:05:07;;;;;;;16.13;9.07;;;;;;;24.44;73.15;100996.25;5076990;28;20535;-65
2023/06/20 09:07:38;;;;;;;18.67;10.70;;;;;;;24.38;74.57;101007.72;5076808;28;20489;-66
2023/06/20 09:10:06;;;;;;;17.00;10.63;;;;;;;24.29;75.43;100993.38;5076613;28;20476;-66
2023/06/20 09:12:46;;;;;;;20.57;12.07;;;;;;;24.06;80.13;100996.38;5076919;28;20532;-65
2023/06/20 09:15:14;;;;;;;21.33;11.00;;;;;;;23.38;87.78;101000.44;5077073;28;20420;-65
2023/06/20 09:17:41;;;;;;;18.80;10.57;;;;;;;22.57;94.54;101001.72;5076681;28;20444;-64
2023/06/20 09:20:11;;;;;;;20.70;11.63;;;;;;;21.98;98.17;101007.88;5076403;28;20477;-68
2023/06/20 09:22:39;;;;;;;20.23;11.47;;;;;;;21.47;100.00;101010.88;5076627;28;20441;-70
2023/06/20 09:25:07;;;;;;;19.63;10.90;;;;;;;21.20;100.00;101020.94;5076591;28;20532;-65
2023/06/20 09:27:34;;;;;;;19.57;11.67;;;;;;;20.92;100.00;101031.00;5076046;28;21006;-65
2023/06/20 09:30:03;;;;;;;25.97;14.03;;;;;;;20.75;100.00;101031.41;5076470;28;20435;-65
2023/06/20 09:32:34;;;;;;;19.73;11.83;;;;;;;20.63;100.00;101037.06;5076249;28;20449;-65
2023/06/20 09:35:03;;;;;;;19.20;13.00;;;;;;;20.53;100.00;101037.56;5076390;28;20452;-66
2023/06/20 09:37:38;;;;;;;20.97;12.40;;;;;;;20.48;100.00;101032.34;5076388;28;20437;-66
2023/06/20 09:40:10;;;;;;;30.43;13.17;;;;;;;20.39;100.00;101038.00;5076479;28;20464;-65
2023/06/20 09:42:37;;;;;;;20.80;12.60;;;;;;;20.34;100.00;101039.09;5076010;28;20453;-65
2023/06/20 09:45:04;;;;;;;24.47;14.00;;;;;;;20.37;100.00;101048.59;5076203;28;20437;-63
2023/06/20 09:47:31;;;;;;;24.83;12.53;;;;;;;20.26;100.00;101053.81;5076156;28;20512;-65
2023/06/20 09:49:58;;;;;;;21.13;13.87;;;;;;;20.17;100.00;101062.25;5076209;28;20520;-65
2023/06/20 09:52:32;;;;;;;22.60;13.80;;;;;;;20.11;100.00;101062.88;5076086;28;20822;-65
2023/06/20 09:55:01;;;;;;;21.67;13.67;;;;;;;20.05;100.00;101065.06;5076133;28;20461;-65
2023/06/20 09:57:34;;;;;;;22.80;13.57;;;;;;;20.06;100.00;101065.88;5075644;28;20464;-66
2023/06/20 10:00:02;;;;;;;28.13;13.70;;;;;;;20.01;100.00;101047.69;5075699;28;20996;-66
2023/06/20 10:02:31;;;;;;;22.63;13.57;;;;;;;19.95;100.00;101053.78;5076283;28;20459;-66
2023/06/20 10:04:59;;;;;;;26.43;13.20;;;;;;;19.95;100.00;101046.34;5075900;28;20887;-65
2023/06/20 10:07:26;;;;;;;24.13;12.80;;;;;;;19.98;100.00;101036.59;5076086;28;20477;-66
2023/06/20 10:09:55;;;;;;;24.63;13.13;;;;;;;19.92;100.00;101025.03;5074686;28;20545;-65
2023/06/20 10:12:24;;;;;;;23.97;13.03;;;;;;;19.90;100.00;101019.91;5075678;28;20441;-66
2023/06/20 10:14:51;;;;;;;24.00;12.97;;;;;;;19.91;100.00;101012.47;5075714;28;20524;-67
2023/06/20 10:17:30;;;;;;;24.97;13.83;;;;;;;19.89;100.00;101007.31;5075310;28;20476;-66
2023/06/20 10:19:58;;;;;;;21.87;12.53;;;;;;;19.89;100.00;101012.03;5075650;28;20421;-66
2023/06/20 10:22:35;;;;;;;24.73;13.77;;;;;;;19.83;100.00;101008.75;5075576;28;20441;-65
2023/06/20 10:25:11;;;;;;;19.23;11.70;;;;;;;19.81;100.00;101008.28;5075528;28;20472;-65
2023/06/20 10:27:42;;;;;;;26.90;13.97;;;;;;;19.82;100.00;101001.63;5075264;28;20568;-65
2023/06/20 10:30:11;;;;;;;22.80;12.93;;;;;;;19.83;100.00;101003.25;5075526;28;20465;-65
2023/06/20 10:32:59;;;;;;;23.37;12.50;;;;;;;19.91;100.00;101005.00;5075082;28;20445;-66
2023/06/20 10:35:28;;;;;;;27.07;14.83;;;;;;;19.95;100.00;100996.84;5075228;28;20456;-65
2023/06/20 10:38:07;;;;;;;27.80;13.10;;;;;;;20.00;100.00;100995.78;5074921;28;21039;-65
2023/06/20 10:40:35;;;;;;;23.33;13.77;;;;;;;20.09;100.00;100996.41;5075288;28;20512;-66
2023/06/20 10:43:06;;;;;;;23.70;12.17;;;;;;;20.14;100.00;100991.44;5075205;28;20477;-65
2023/06/20 10:45:34;;;;;;;22.70;14.37;;;;;;;20.19;100.00;100987.63;5075138;28;20528;-66
2023/06/20 10:48:01;;;;;;;22.03;12.57;;;;;;;20.24;100.00;100981.06;5075278;28;20856;-66
2023/06/20 10:50:29;;;;;;;23.60;13.43;;;;;;;20.22;100.00;100986.91;5075160;28;20488;-66
2023/06/20 10:52:59;;;;;;;19.87;13.30;;;;;;;20.27;100.00;100983.06;5074998;28;20453;-66
2023/06/20 10:55:27;;;;;;;19.53;11.53;;;;;;;20.31;100.00;100984.75;5074905;28;20484;-66
2023/06/20 10:57:55;;;;;;;20.77;12.23;;;;;;;20.36;100.00;100976.25;5074771;28;20568;-67
2023/06/20 11:00:23;;;;;;;25.33;13.90;;;;;;;20.39;100.00;100981.03;5074766;28;20445;-66
2023/06/20 11:02:51;;;;;;;22.20;13.23;;;;;;;20.37;100.00;100975.09;5074580;28;20556;-66
2023/06/20 11:05:19;;;;;;;23.17;13.40;;;;;;;20.41;100.00;100973.22;5074507;28;20528;-66
2023/06/20 11:07:58;;;;;;;22.83;12.60;;;;;;;20.52;100.00;100967.97;5074561;28;20481;-66
2023/06/20 11:10:29;;;;;;;24.33;13.20;;;;;;;20.59;100.00;100975.59;5074761;28;20434;-66
2023/06/20 11:12:56;;;;;;;20.63;12.20;;;;;;;20.69;100.00;100966.78;5074907;28;20491;-66
2023/06/20 11:15:25;;;;;;;22.43;12.50;;;;;;;20.75;100.00;100968.06;5074601;28;20445;-66
2023/06/20 11:17:52;;;;;;;25.60;13.67;;;;;;;20.74;100.00;100966.50;5074436;28;20500;-66